Goochland, Virginia
Current Conditions -  °F | °C
As of 3:15 PM on Thursday 23 Oct 2014 (Local Time) from K7W4 Reporting Station
Broken Clouds Broken Clouds  
Wind Chill: 65°   Ceiling: 5000
Heat Index: 65°   Visibility: 10mi
Dew Point: 45°   Wind: 5mph
Humidity: 48%   Direction: 340°NNW
Pressure: 29.88"   Gusts: 16mph
Location:  37.68°N, 77.88°W
Report Text: K7W4 231915Z AUTO 34004G14KT 10SM BKN050 19/07 A2988 RMK AO1 T01860074
Loading
Personal Weather Stations






























Interactive Weather Map
Tropical Storm Tracking
New forecast layout! Learn more

10-Day Weather Forecast

Advertisements
Track Severe Weather on mobile